Ocean Pathfinder — WDG8613 — position and weather

sailwx.info

Track history (hours):
 
Tides and Currents Weather Stations Pressure Air Temp Water Temp Dewpoint Dewpoint Depression Visibility Wind Speed Wind Dir Waves Ship Positions

Ocean Pathfinder

Owner: Ocean Pathfinder Holding, LLC, Seattle, WA. More information available from US FCC via Universal Licensing System and Coast Guard Vessel Documentation Center.

Last reported at 2017-Oct-10 11:24 UTC. Time now 2017-Oct-18 18:40 UTC.
Position N 58°12' W 136°33'.
Warning: this ship's position is 8 days out of date.

Length 39 m; draft 6 m.

Type: Tow > 200 m length. MMSI: 367579350.

Date/timePositionNaut miles runAvg speedWind from/ knotsBaromVisibWave heightAir tempDewpointWater temp
2017-Oct-10 11:24N 58°12' W 136°33'11 7.1
2017-Oct-10 09:47N 58°16' W 136°14'3 8.2
2017-Oct-10 09:27N 58°15' W 136°09'3 6.6
2017-Oct-10 08:59N 58°15' W 136°03'4 7.6
2017-Oct-10 08:30N 58°16' W 135°57'4 7.2
2017-Oct-10 08:00N 58°18' W 135°50'4 7.4
2017-Oct-10 07:30N 58°18' W 135°43'4 8.8
2017-Oct-10 07:00N 58°16' W 135°36'4 7.1
2017-Oct-10 06:26N 58°14' W 135°29'3 6.6
2017-Oct-10 05:57N 58°12' W 135°24'  
2017-Oct-05 07:16N 54°35' W 132°46'2 6.1
2017-Oct-05 07:00N 54°35' W 132°44'3 6.0
2017-Oct-05 06:30N 54°34' W 132°39'3 6.4
2017-Oct-05 06:00N 54°33' W 132°33'4 7.2
2017-Oct-05 05:30N 54°32' W 132°27'4 7.7
2017-Oct-05 05:00N 54°31' W 132°21'4 7.8
2017-Oct-05 04:30N 54°31' W 132°14'4 8.5
2017-Oct-05 04:00N 54°30' W 132°07'4 8.8
2017-Oct-05 03:30N 54°29' W 131°60'5 9.3
2017-Oct-05 03:00N 54°28' W 131°52'5 9.9
2017-Oct-05 02:31N 54°26' W 131°44'5 9.2
2017-Oct-05 02:00N 54°25' W 131°36'5 9.7
2017-Oct-05 01:30N 54°24' W 131°28'5 9.4
2017-Oct-05 01:00N 54°23' W 131°20'5 9.8
2017-Oct-05 00:30N 54°22' W 131°12'5 9.8
2017-Oct-04 23:59N 54°19' W 131°05'510.3
2017-Oct-04 23:30N 54°14' W 131°03'5 9.3
2017-Oct-04 23:00N 54°10' W 131°02'5 9.6
2017-Oct-04 22:30N 54°05' W 131°02'5 9.8
2017-Oct-04 22:00N 54°00' W 131°01'5 9.2
2017-Oct-04 21:31N 53°56' W 130°59'5 9.2
2017-Oct-04 21:00N 53°52' W 130°54'5 9.5
2017-Oct-04 20:30N 53°49' W 130°48'5 9.6
2017-Oct-04 19:59N 53°46' W 130°41'5 9.5
2017-Oct-04 19:25N 53°42' W 130°34'2910.2
2017-Oct-04 16:36N 53°25' W 129°55'52 9.3
2017-Oct-04 10:59N 52°44' W 129°04'4 8.3
2017-Oct-04 10:27N 52°41' W 128°58'20 9.2
2017-Oct-04 08:16N 52°21' W 128°49'2 9.4
2017-Oct-04 08:00N 52°19' W 128°49'5 9.8
2017-Oct-04 07:30N 52°14' W 128°48'510.0
2017-Oct-04 07:00N 52°09' W 128°45'5 9.8
2017-Oct-04 06:30N 52°05' W 128°42'5 9.7
2017-Oct-04 06:00N 52°00' W 128°39'5 9.7
2017-Oct-04 05:30N 51°56' W 128°37'5 9.7
2017-Oct-04 05:00N 51°51' W 128°34'5 9.6
2017-Oct-04 04:30N 51°47' W 128°30'5 9.4
2017-Oct-04 04:00N 51°43' W 128°26'5 9.3
2017-Oct-04 03:30N 51°39' W 128°22'5 9.2
2017-Oct-04 03:00N 51°35' W 128°17'5 9.7
2017-Oct-04 02:30N 51°31' W 128°13'5 9.9
2017-Oct-04 02:01N 51°27' W 128°08'5 9.9
2017-Oct-04 01:30N 51°24' W 128°02'5 9.7
2017-Oct-04 01:01N 51°20' W 127°57'5 9.2
2017-Oct-04 00:30N 51°16' W 127°54'4 7.3
2017-Oct-04 00:00N 51°13' W 127°52'4 7.7
2017-Oct-03 23:30N 51°09' W 127°50'5 9.5
2017-Oct-03 23:00N 51°06' W 127°45'510.1
2017-Oct-03 22:30N 51°03' W 127°39'5 9.5
2017-Oct-03 22:00N 50°59' W 127°34'5 9.4
2017-Oct-03 21:30N 50°56' W 127°27'5 9.9
2017-Oct-03 21:00N 50°53' W 127°21'5 9.8
2017-Oct-03 20:30N 50°51' W 127°15'5 9.7
2017-Oct-03 20:00N 50°48' W 127°08'5 9.2
2017-Oct-03 19:30N 50°46' W 127°02'5 9.2
2017-Oct-03 18:59N 50°43' W 126°56'8 7.9
2017-Oct-03 18:01N 50°38' W 126°47'7 8.2
2017-Oct-03 17:13N 50°32' W 126°41'2 9.3
2017-Oct-03 16:57N 50°31' W 126°37'5 9.8
2017-Oct-03 16:28N 50°30' W 126°30'5 9.8
2017-Oct-03 15:58N 50°30' W 126°22'2510.3
2017-Oct-03 13:29N 50°22' W 125°44'1210.6
2017-Oct-03 12:23N 50°20' W 125°26'4 9.3
2017-Oct-03 12:00N 50°17' W 125°24'5 9.5
2017-Oct-03 11:30N 50°13' W 125°22'4 8.9
2017-Oct-03 11:00N 50°08' W 125°21'3 6.7
2017-Oct-03 10:30N 50°06' W 125°17'3 6.6
2017-Oct-03 10:01N 50°03' W 125°14'3 5.7
2017-Oct-03 09:30N 50°01' W 125°13'3 5.5
2017-Oct-03 09:00N 49°58' W 125°10'3 6.4
2017-Oct-03 08:30N 49°56' W 125°07'3 6.7
2017-Oct-03 08:00N 49°54' W 125°03'3 5.8
2017-Oct-03 07:30N 49°52' W 124°59'2 3.9
2017-Oct-03 07:00N 49°51' W 124°57'2 3.6
2017-Oct-03 06:30N 49°50' W 124°54'2 3.4
2017-Oct-03 06:00N 49°49' W 124°52'2 3.4
2017-Oct-03 05:30N 49°48' W 124°50'2 3.4
2017-Oct-03 05:00N 49°47' W 124°48'2 3.4
2017-Oct-03 04:30N 49°46' W 124°46'2 4.2
2017-Oct-03 04:00N 49°44' W 124°44'2 4.9
2017-Oct-03 03:30N 49°43' W 124°41'3 5.2
2017-Oct-03 03:00N 49°41' W 124°38'4 7.2
2017-Oct-03 02:30N 49°39' W 124°33'5 9.1
2017-Oct-03 02:00N 49°36' W 124°28'5 9.2
2017-Oct-03 01:30N 49°34' W 124°22'5 9.1
2017-Oct-03 01:00N 49°32' W 124°15'4 9.0
2017-Oct-03 00:30N 49°29' W 124°10'4 8.8
2017-Oct-03 00:00N 49°27' W 124°04'4 8.4
2017-Oct-02 23:30N 49°25' W 123°59'4 8.8
2017-Oct-02 23:00N 49°23' W 123°53'4 9.0
2017-Oct-02 22:30N 49°20' W 123°47'4 8.5
2017-Oct-02 22:00N 49°17' W 123°42'4 8.3
2017-Oct-02 21:30N 49°14' W 123°38'4 8.2
2017-Oct-02 21:00N 49°11' W 123°33'4 8.7
2017-Oct-02 20:30N 49°08' W 123°28'4 9.1
2017-Oct-02 20:00N 49°05' W 123°23'4 8.9
2017-Oct-02 19:30N 49°02' W 123°18'5 9.4
2017-Oct-02 19:00N 48°59' W 123°13'5 9.2
2017-Oct-02 18:30N 48°57' W 123°07'5 8.9
2017-Oct-02 17:59N 48°54' W 123°02'4 8.9
2017-Oct-02 17:30N 48°51' W 122°57'5 8.8
2017-Oct-02 16:58N 48°48' W 122°51'4 8.8
2017-Oct-02 16:30N 48°45' W 122°46'4 8.1
2017-Oct-02 16:00N 48°42' W 122°43'3 6.7
2017-Oct-02 15:30N 48°39' W 122°43'3 6.5
2017-Oct-02 15:00N 48°36' W 122°45'3 6.3
2017-Oct-02 14:30N 48°32' W 122°45'3 6.5
2017-Oct-02 14:00N 48°29' W 122°44'4 6.9
2017-Oct-02 13:30N 48°26' W 122°44'4 7.6
2017-Oct-02 13:00N 48°22' W 122°45'11 8.4
2017-Oct-02 11:42N 48°11' W 122°46'311.9
2017-Oct-02 11:28N 48°09' W 122°43'610.0
2017-Oct-02 10:55N 48°05' W 122°38'4 9.9
2017-Oct-02 10:29N 48°01' W 122°36'5 9.7
2017-Oct-02 09:59N 47°57' W 122°32'8 9.1
2017-Oct-02 09:05N 47°49' W 122°27'2 9.6
2017-Oct-02 08:51N 47°47' W 122°26'3 9.3
2017-Oct-02 08:29N 47°44' W 122°26'4 9.0
2017-Oct-02 08:00N 47°40' W 122°27'4 8.5
2017-Oct-02 07:30N 47°36' W 122°23'1 2.2
2017-Oct-02 07:00N 47°35' W 122°22'0 0.1
2017-Oct-02 06:30N 47°35' W 122°22'0 0.1
2017-Oct-02 06:00N 47°35' W 122°22'1 2.1
2017-Oct-02 05:30N 47°34' W 122°21'0 0.0
2017-Oct-02 05:00N 47°34' W 122°21'0 0.0
2017-Oct-02 04:30N 47°34' W 122°21'0 0.0
2017-Oct-02 04:00N 47°34' W 122°21'0 0.0
2017-Oct-02 03:30N 47°34' W 122°21'0 0.0
2017-Oct-02 03:00N 47°34' W 122°21'0 0.0
2017-Oct-02 02:30N 47°34' W 122°21'0 0.0
2017-Oct-02 02:00N 47°34' W 122°21'0 0.0
2017-Oct-02 01:30N 47°34' W 122°21'0 0.0
2017-Oct-02 01:00N 47°34' W 122°21'0 0.0
2017-Oct-02 00:30N 47°34' W 122°21'0 0.0
2017-Oct-02 00:00N 47°34' W 122°21'0 0.0
2017-Oct-01 23:30N 47°34' W 122°21'0 0.0
2017-Oct-01 23:00N 47°34' W 122°21'0 0.0
2017-Oct-01 22:30N 47°34' W 122°21'0 0.0
2017-Oct-01 22:00N 47°34' W 122°21'0 0.0
2017-Oct-01 21:30N 47°34' W 122°21'0 0.0
2017-Oct-01 21:00N 47°34' W 122°21'0 0.0
2017-Oct-01 20:29N 47°34' W 122°21'0 0.0
2017-Oct-01 20:00N 47°34' W 122°21'0 0.0
2017-Oct-01 19:30N 47°34' W 122°21'0 0.1
2017-Oct-01 19:00N 47°34' W 122°21'0 0.1
2017-Oct-01 18:30N 47°34' W 122°21'0 0.0
2017-Oct-01 18:00N 47°34' W 122°21'0 0.0
2017-Oct-01 17:31N 47°34' W 122°21'0 0.0
2017-Oct-01 17:00N 47°34' W 122°21'0 0.0
2017-Oct-01 16:31N 47°34' W 122°21'0 0.0
2017-Oct-01 16:00N 47°34' W 122°21'0 0.0
2017-Oct-01 15:30N 47°34' W 122°21'0 0.0
2017-Oct-01 15:00N 47°34' W 122°21'0 0.0
2017-Oct-01 14:30N 47°34' W 122°21'0 0.0
2017-Oct-01 14:01N 47°34' W 122°21'0 0.0
2017-Oct-01 13:30N 47°34' W 122°21'0 0.0
2017-Oct-01 13:00N 47°34' W 122°21'0 0.0
2017-Oct-01 12:30N 47°34' W 122°21'0 0.0
2017-Oct-01 12:00N 47°34' W 122°21'0 0.0
2017-Oct-01 11:30N 47°34' W 122°21'0 0.0
2017-Oct-01 11:00N 47°34' W 122°21'0 0.0
2017-Oct-01 10:30N 47°34' W 122°21'0 0.1
2017-Oct-01 10:00N 47°34' W 122°21'0 0.1
2017-Oct-01 09:30N 47°34' W 122°21'0 0.1
2017-Oct-01 09:00N 47°34' W 122°21'0 0.1
2017-Oct-01 08:31N 47°34' W 122°21'0 0.0
2017-Oct-01 08:00N 47°34' W 122°21'0 0.0
2017-Oct-01 07:30N 47°34' W 122°21'0 0.0
2017-Oct-01 07:00N 47°34' W 122°21'0 0.1
2017-Oct-01 06:30N 47°34' W 122°21'0 0.1
2017-Oct-01 06:00N 47°34' W 122°21'0 0.0
2017-Oct-01 05:30N 47°34' W 122°21'0 0.0
2017-Oct-01 05:00N 47°34' W 122°21'0 0.0
2017-Oct-01 04:30N 47°34' W 122°21'0 0.0
2017-Oct-01 04:00N 47°34' W 122°21'0 0.0
2017-Oct-01 03:30N 47°34' W 122°21'0 0.0
2017-Oct-01 03:00N 47°34' W 122°21'  
Track history (hours):
 
Tides and Currents Weather Stations Pressure Air Temp Water Temp Dewpoint Dewpoint Depression Visibility Wind Speed Wind Dir Waves Ship Positions

Ocean Pathfinder

Owner: Ocean Pathfinder Holding, LLC, Seattle, WA. More information available from US FCC via Universal Licensing System and Coast Guard Vessel Documentation Center.

Last reported at 2017-Oct-10 11:24 UTC. Time now 2017-Oct-18 18:40 UTC.
Position N 58°12' W 136°33'.
Warning: this ship's position is 8 days out of date.

Length 39 m; draft 6 m.

Type: Tow > 200 m length. MMSI: 367579350.

Date/timePositionNaut miles runAvg speedWind from/ knotsBaromVisibWave heightAir tempDewpointWater temp
2017-Oct-10 11:24N 58°12' W 136°33'11 7.1
2017-Oct-10 09:47N 58°16' W 136°14'3 8.2
2017-Oct-10 09:27N 58°15' W 136°09'3 6.6
2017-Oct-10 08:59N 58°15' W 136°03'4 7.6
2017-Oct-10 08:30N 58°16' W 135°57'4 7.2
2017-Oct-10 08:00N 58°18' W 135°50'4 7.4
2017-Oct-10 07:30N 58°18' W 135°43'4 8.8
2017-Oct-10 07:00N 58°16' W 135°36'4 7.1
2017-Oct-10 06:26N 58°14' W 135°29'3 6.6
2017-Oct-10 05:57N 58°12' W 135°24'  
2017-Oct-05 07:16N 54°35' W 132°46'2 6.1
2017-Oct-05 07:00N 54°35' W 132°44'3 6.0
2017-Oct-05 06:30N 54°34' W 132°39'3 6.4
2017-Oct-05 06:00N 54°33' W 132°33'4 7.2
2017-Oct-05 05:30N 54°32' W 132°27'4 7.7
2017-Oct-05 05:00N 54°31' W 132°21'4 7.8
2017-Oct-05 04:30N 54°31' W 132°14'4 8.5
2017-Oct-05 04:00N 54°30' W 132°07'4 8.8
2017-Oct-05 03:30N 54°29' W 131°60'5 9.3
2017-Oct-05 03:00N 54°28' W 131°52'5 9.9
2017-Oct-05 02:31N 54°26' W 131°44'5 9.2
2017-Oct-05 02:00N 54°25' W 131°36'5 9.7
2017-Oct-05 01:30N 54°24' W 131°28'5 9.4
2017-Oct-05 01:00N 54°23' W 131°20'5 9.8
2017-Oct-05 00:30N 54°22' W 131°12'5 9.8
2017-Oct-04 23:59N 54°19' W 131°05'510.3
2017-Oct-04 23:30N 54°14' W 131°03'5 9.3
2017-Oct-04 23:00N 54°10' W 131°02'5 9.6
2017-Oct-04 22:30N 54°05' W 131°02'5 9.8
2017-Oct-04 22:00N 54°00' W 131°01'5 9.2
2017-Oct-04 21:31N 53°56' W 130°59'5 9.2
2017-Oct-04 21:00N 53°52' W 130°54'5 9.5
2017-Oct-04 20:30N 53°49' W 130°48'5 9.6
2017-Oct-04 19:59N 53°46' W 130°41'5 9.5
2017-Oct-04 19:25N 53°42' W 130°34'2910.2
2017-Oct-04 16:36N 53°25' W 129°55'52 9.3
2017-Oct-04 10:59N 52°44' W 129°04'4 8.3
2017-Oct-04 10:27N 52°41' W 128°58'20 9.2
2017-Oct-04 08:16N 52°21' W 128°49'2 9.4
2017-Oct-04 08:00N 52°19' W 128°49'5 9.8
2017-Oct-04 07:30N 52°14' W 128°48'510.0
2017-Oct-04 07:00N 52°09' W 128°45'5 9.8
2017-Oct-04 06:30N 52°05' W 128°42'5 9.7
2017-Oct-04 06:00N 52°00' W 128°39'5 9.7
2017-Oct-04 05:30N 51°56' W 128°37'5 9.7
2017-Oct-04 05:00N 51°51' W 128°34'5 9.6
2017-Oct-04 04:30N 51°47' W 128°30'5 9.4
2017-Oct-04 04:00N 51°43' W 128°26'5 9.3
2017-Oct-04 03:30N 51°39' W 128°22'5 9.2
2017-Oct-04 03:00N 51°35' W 128°17'5 9.7
2017-Oct-04 02:30N 51°31' W 128°13'5 9.9
2017-Oct-04 02:01N 51°27' W 128°08'5 9.9
2017-Oct-04 01:30N 51°24' W 128°02'5 9.7
2017-Oct-04 01:01N 51°20' W 127°57'5 9.2
2017-Oct-04 00:30N 51°16' W 127°54'4 7.3
2017-Oct-04 00:00N 51°13' W 127°52'4 7.7
2017-Oct-03 23:30N 51°09' W 127°50'5 9.5
2017-Oct-03 23:00N 51°06' W 127°45'510.1
2017-Oct-03 22:30N 51°03' W 127°39'5 9.5
2017-Oct-03 22:00N 50°59' W 127°34'5 9.4
2017-Oct-03 21:30N 50°56' W 127°27'5 9.9
2017-Oct-03 21:00N 50°53' W 127°21'5 9.8
2017-Oct-03 20:30N 50°51' W 127°15'5 9.7
2017-Oct-03 20:00N 50°48' W 127°08'5 9.2
2017-Oct-03 19:30N 50°46' W 127°02'5 9.2
2017-Oct-03 18:59N 50°43' W 126°56'8 7.9
2017-Oct-03 18:01N 50°38' W 126°47'7 8.2
2017-Oct-03 17:13N 50°32' W 126°41'2 9.3
2017-Oct-03 16:57N 50°31' W 126°37'5 9.8
2017-Oct-03 16:28N 50°30' W 126°30'5 9.8
2017-Oct-03 15:58N 50°30' W 126°22'2510.3
2017-Oct-03 13:29N 50°22' W 125°44'1210.6
2017-Oct-03 12:23N 50°20' W 125°26'4 9.3
2017-Oct-03 12:00N 50°17' W 125°24'5 9.5
2017-Oct-03 11:30N 50°13' W 125°22'4 8.9
2017-Oct-03 11:00N 50°08' W 125°21'3 6.7
2017-Oct-03 10:30N 50°06' W 125°17'3 6.6
2017-Oct-03 10:01N 50°03' W 125°14'3 5.7
2017-Oct-03 09:30N 50°01' W 125°13'3 5.5
2017-Oct-03 09:00N 49°58' W 125°10'3 6.4
2017-Oct-03 08:30N 49°56' W 125°07'3 6.7
2017-Oct-03 08:00N 49°54' W 125°03'3 5.8
2017-Oct-03 07:30N 49°52' W 124°59'2 3.9
2017-Oct-03 07:00N 49°51' W 124°57'2 3.6
2017-Oct-03 06:30N 49°50' W 124°54'2 3.4
2017-Oct-03 06:00N 49°49' W 124°52'2 3.4
2017-Oct-03 05:30N 49°48' W 124°50'2 3.4
2017-Oct-03 05:00N 49°47' W 124°48'2 3.4
2017-Oct-03 04:30N 49°46' W 124°46'2 4.2
2017-Oct-03 04:00N 49°44' W 124°44'2 4.9
2017-Oct-03 03:30N 49°43' W 124°41'3 5.2
2017-Oct-03 03:00N 49°41' W 124°38'4 7.2
2017-Oct-03 02:30N 49°39' W 124°33'5 9.1
2017-Oct-03 02:00N 49°36' W 124°28'5 9.2
2017-Oct-03 01:30N 49°34' W 124°22'5 9.1
2017-Oct-03 01:00N 49°32' W 124°15'4 9.0
2017-Oct-03 00:30N 49°29' W 124°10'4 8.8
2017-Oct-03 00:00N 49°27' W 124°04'4 8.4
2017-Oct-02 23:30N 49°25' W 123°59'4 8.8
2017-Oct-02 23:00N 49°23' W 123°53'4 9.0
2017-Oct-02 22:30N 49°20' W 123°47'4 8.5
2017-Oct-02 22:00N 49°17' W 123°42'4 8.3
2017-Oct-02 21:30N 49°14' W 123°38'4 8.2
2017-Oct-02 21:00N 49°11' W 123°33'4 8.7
2017-Oct-02 20:30N 49°08' W 123°28'4 9.1
2017-Oct-02 20:00N 49°05' W 123°23'4 8.9
2017-Oct-02 19:30N 49°02' W 123°18'5 9.4
2017-Oct-02 19:00N 48°59' W 123°13'5 9.2
2017-Oct-02 18:30N 48°57' W 123°07'5 8.9
2017-Oct-02 17:59N 48°54' W 123°02'4 8.9
2017-Oct-02 17:30N 48°51' W 122°57'5 8.8
2017-Oct-02 16:58N 48°48' W 122°51'4 8.8
2017-Oct-02 16:30N 48°45' W 122°46'4 8.1
2017-Oct-02 16:00N 48°42' W 122°43'3 6.7
2017-Oct-02 15:30N 48°39' W 122°43'3 6.5
2017-Oct-02 15:00N 48°36' W 122°45'3 6.3
2017-Oct-02 14:30N 48°32' W 122°45'3 6.5
2017-Oct-02 14:00N 48°29' W 122°44'4 6.9
2017-Oct-02 13:30N 48°26' W 122°44'4 7.6
2017-Oct-02 13:00N 48°22' W 122°45'11 8.4
2017-Oct-02 11:42N 48°11' W 122°46'311.9
2017-Oct-02 11:28N 48°09' W 122°43'610.0
2017-Oct-02 10:55N 48°05' W 122°38'4 9.9
2017-Oct-02 10:29N 48°01' W 122°36'5 9.7
2017-Oct-02 09:59N 47°57' W 122°32'8 9.1
2017-Oct-02 09:05N 47°49' W 122°27'2 9.6
2017-Oct-02 08:51N 47°47' W 122°26'3 9.3
2017-Oct-02 08:29N 47°44' W 122°26'4 9.0
2017-Oct-02 08:00N 47°40' W 122°27'4 8.5
2017-Oct-02 07:30N 47°36' W 122°23'1 2.2
2017-Oct-02 07:00N 47°35' W 122°22'0 0.1
2017-Oct-02 06:30N 47°35' W 122°22'0 0.1
2017-Oct-02 06:00N 47°35' W 122°22'1 2.1
2017-Oct-02 05:30N 47°34' W 122°21'0 0.0
2017-Oct-02 05:00N 47°34' W 122°21'0 0.0
2017-Oct-02 04:30N 47°34' W 122°21'0 0.0
2017-Oct-02 04:00N 47°34' W 122°21'0 0.0
2017-Oct-02 03:30N 47°34' W 122°21'0 0.0
2017-Oct-02 03:00N 47°34' W 122°21'0 0.0
2017-Oct-02 02:30N 47°34' W 122°21'0 0.0
2017-Oct-02 02:00N 47°34' W 122°21'0 0.0
2017-Oct-02 01:30N 47°34' W 122°21'0 0.0
2017-Oct-02 01:00N 47°34' W 122°21'0 0.0
2017-Oct-02 00:30N 47°34' W 122°21'0 0.0
2017-Oct-02 00:00N 47°34' W 122°21'0 0.0
2017-Oct-01 23:30N 47°34' W 122°21'0 0.0
2017-Oct-01 23:00N 47°34' W 122°21'0 0.0
2017-Oct-01 22:30N 47°34' W 122°21'0 0.0
2017-Oct-01 22:00N 47°34' W 122°21'0 0.0
2017-Oct-01 21:30N 47°34' W 122°21'0 0.0
2017-Oct-01 21:00N 47°34' W 122°21'0 0.0
2017-Oct-01 20:29N 47°34' W 122°21'0 0.0
2017-Oct-01 20:00N 47°34' W 122°21'0 0.0
2017-Oct-01 19:30N 47°34' W 122°21'0 0.1
2017-Oct-01 19:00N 47°34' W 122°21'0 0.1
2017-Oct-01 18:30N 47°34' W 122°21'0 0.0
2017-Oct-01 18:00N 47°34' W 122°21'0 0.0
2017-Oct-01 17:31N 47°34' W 122°21'0 0.0
2017-Oct-01 17:00N 47°34' W 122°21'0 0.0
2017-Oct-01 16:31N 47°34' W 122°21'0 0.0
2017-Oct-01 16:00N 47°34' W 122°21'0 0.0
2017-Oct-01 15:30N 47°34' W 122°21'0 0.0
2017-Oct-01 15:00N 47°34' W 122°21'0 0.0
2017-Oct-01 14:30N 47°34' W 122°21'0 0.0
2017-Oct-01 14:01N 47°34' W 122°21'0 0.0
2017-Oct-01 13:30N 47°34' W 122°21'0 0.0
2017-Oct-01 13:00N 47°34' W 122°21'0 0.0
2017-Oct-01 12:30N 47°34' W 122°21'0 0.0
2017-Oct-01 12:00N 47°34' W 122°21'0 0.0
2017-Oct-01 11:30N 47°34' W 122°21'0 0.0
2017-Oct-01 11:00N 47°34' W 122°21'0 0.0
2017-Oct-01 10:30N 47°34' W 122°21'0 0.1
2017-Oct-01 10:00N 47°34' W 122°21'0 0.1
2017-Oct-01 09:30N 47°34' W 122°21'0 0.1
2017-Oct-01 09:00N 47°34' W 122°21'0 0.1
2017-Oct-01 08:31N 47°34' W 122°21'0 0.0
2017-Oct-01 08:00N 47°34' W 122°21'0 0.0
2017-Oct-01 07:30N 47°34' W 122°21'0 0.0
2017-Oct-01 07:00N 47°34' W 122°21'0 0.1
2017-Oct-01 06:30N 47°34' W 122°21'0 0.1
2017-Oct-01 06:00N 47°34' W 122°21'0 0.0
2017-Oct-01 05:30N 47°34' W 122°21'0 0.0
2017-Oct-01 05:00N 47°34' W 122°21'0 0.0
2017-Oct-01 04:30N 47°34' W 122°21'0 0.0
2017-Oct-01 04:00N 47°34' W 122°21'0 0.0
2017-Oct-01 03:30N 47°34' W 122°21'0 0.0
2017-Oct-01 03:00N 47°34' W 122°21'  

Dump ship's entire track history